Time;durP1;ratioP1;P1;durP2;ratioP2;P2;SDS_P1;SDS_P2;PMS_P1;PMS_P2;Temp;Humidity;BMP_temperature;BMP_pressure;BME280_temperature;BME280_humidity;BME280_pressure;Samples;Min_cycle;Max_cycle;Signal;HPM_P1;HPM_P2
2021/06/25 00:02:16;;;;;;;13.43;8.50;;;;;;;28.23;52.08;99402.16;5091711;28;20104;-76
2021/06/25 00:04:42;;;;;;;12.50;7.90;;;;;;;28.43;52.27;99457.00;5090283;28;20034;-76
2021/06/25 00:07:07;;;;;;;12.55;8.43;;;;;;;28.33;52.42;99450.94;5091568;28;20119;-76
2021/06/25 00:09:33;;;;;;;16.00;8.57;;;;;;;28.07;52.42;99426.84;5091712;28;20056;-76
2021/06/25 00:11:58;;;;;;;13.45;8.00;;;;;;;27.88;52.62;99404.38;5091743;28;20024;-77
2021/06/25 00:14:24;;;;;;;17.73;8.90;;;;;;;28.30;52.61;99471.34;5091508;28;20020;-76
2021/06/25 00:16:51;;;;;;;13.27;8.57;;;;;;;28.25;52.82;99468.69;5091670;28;20055;-76
2021/06/25 00:19:17;;;;;;;15.10;8.98;;;;;;;27.61;52.80;99377.91;5090318;28;20408;-76
2021/06/25 00:21:42;;;;;;;13.68;8.68;;;;;;;27.84;52.70;99420.44;5091425;28;20034;-75
2021/06/25 00:24:09;;;;;;;16.38;8.82;;;;;;;28.14;52.84;99465.28;5091426;28;20032;-76
2021/06/25 00:26:34;;;;;;;13.07;7.78;;;;;;;27.64;53.07;99395.50;5091413;28;20073;-77
2021/06/25 00:29:00;;;;;;;14.50;9.15;;;;;;;27.63;52.72;99386.56;5093311;28;20028;-76
2021/06/25 00:31:25;;;;;;;15.90;8.82;;;;;;;27.70;52.69;99419.56;5095660;28;20109;-76
2021/06/25 00:33:51;;;;;;;14.60;8.27;;;;;;;28.00;52.90;99461.72;5094246;28;20095;-76
2021/06/25 00:36:16;;;;;;;15.43;8.77;;;;;;;27.93;52.99;99452.31;5095465;28;20024;-76
2021/06/25 00:38:41;;;;;;;15.90;9.55;;;;;;;27.67;53.02;99413.91;5095379;28;20442;-76
2021/06/25 00:41:07;;;;;;;14.40;9.10;;;;;;;27.95;53.01;99461.78;5095334;28;20040;-77
2021/06/25 00:43:32;;;;;;;14.00;9.27;;;;;;;27.93;53.28;99461.28;5095568;28;20028;-76
2021/06/25 00:45:58;;;;;;;16.45;9.77;;;;;;;27.98;52.99;99471.25;5093962;28;20024;-75
2021/06/25 00:48:23;;;;;;;11.00;8.50;;;;;;;27.80;53.12;99449.25;5095225;28;20080;-76
2021/06/25 00:50:49;;;;;;;11.70;9.00;;;;;;;27.66;52.96;99423.97;5095097;28;20024;-76
2021/06/25 00:53:14;;;;;;;15.13;8.85;;;;;;;27.99;53.11;99464.72;5095417;28;20027;-77
2021/06/25 00:55:43;;;;;;;16.33;8.52;;;;;;;27.99;53.08;99468.25;5095287;28;20150;-77
2021/06/25 00:58:13;;;;;;;15.40;9.40;;;;;;;28.01;53.07;99466.03;5095138;28;20408;-76
2021/06/25 01:00:39;;;;;;;15.40;9.23;;;;;;;28.03;52.99;99466.53;5095070;28;20099;-77
2021/06/25 01:03:05;;;;;;;13.43;8.70;;;;;;;28.08;52.88;99469.19;5095111;28;20533;-76
2021/06/25 01:05:30;;;;;;;15.95;8.70;;;;;;;27.98;52.70;99444.09;5095340;28;20027;-76
2021/06/25 01:07:56;;;;;;;16.77;9.13;;;;;;;28.06;52.96;99463.25;5094937;28;20063;-76
2021/06/25 01:10:22;;;;;;;13.63;9.00;;;;;;;28.06;52.88;99465.97;5094803;28;20103;-75
2021/06/25 01:12:47;;;;;;;12.65;8.95;;;;;;;27.82;52.67;99428.06;5094780;28;20027;-75
2021/06/25 01:15:14;;;;;;;15.32;8.95;;;;;;;28.05;53.08;99464.34;5094816;28;20024;-75
2021/06/25 01:17:42;;;;;;;18.65;9.15;;;;;;;27.98;52.95;99450.34;5093300;28;20097;-76
2021/06/25 01:20:16;;;;;;;16.15;8.82;;;;;;;28.08;53.01;99465.66;5094423;28;20016;-76
2021/06/25 01:22:42;;;;;;;16.33;9.23;;;;;;;27.82;52.74;99430.78;5094816;28;20024;-75
2021/06/25 01:25:16;;;;;;;17.27;8.70;;;;;;;27.98;52.76;99455.75;5094520;28;20034;-76
2021/06/25 01:27:43;;;;;;;13.02;8.93;;;;;;;28.07;52.97;99475.72;5094473;28;20024;-76
2021/06/25 01:30:16;;;;;;;12.75;8.82;;;;;;;27.87;52.70;99445.38;5094424;28;20031;-76
2021/06/25 01:32:42;;;;;;;16.63;9.13;;;;;;;28.03;52.89;99496.41;5094517;28;20052;-75
2021/06/25 01:35:10;;;;;;;13.55;9.18;;;;;;;27.74;52.84;99439.56;5094355;28;20106;-76
2021/06/25 01:37:36;;;;;;;15.60;9.00;;;;;;;27.97;52.78;99472.34;5092884;28;20028;-75
2021/06/25 01:40:02;;;;;;;15.00;8.80;;;;;;;27.88;52.86;99474.91;5094106;28;20023;-76
2021/06/25 01:42:32;;;;;;;13.10;8.95;;;;;;;27.79;52.67;99469.34;5093027;28;20427;-76
2021/06/25 01:44:57;;;;;;;15.15;9.15;;;;;;;27.43;52.84;99428.28;5093924;28;20405;-76
2021/06/25 01:47:23;;;;;;;14.40;9.02;;;;;;;27.82;52.96;99485.03;5092655;28;20028;-77
2021/06/25 01:49:49;;;;;;;17.45;9.05;;;;;;;27.32;53.12;99407.03;5094140;28;20052;-76
2021/06/25 01:52:18;;;;;;;14.07;8.88;;;;;;;27.53;53.11;99447.16;5092806;28;20020;-76
2021/06/25 01:54:45;;;;;;;14.85;9.07;;;;;;;27.69;53.25;99479.53;5094174;28;20008;-76
2021/06/25 01:57:10;;;;;;;17.52;9.60;;;;;;;27.70;53.39;99475.72;5092629;28;20350;-76
2021/06/25 01:59:36;;;;;;;17.35;9.43;;;;;;;27.28;53.31;99409.50;5093990;28;20026;-76
2021/06/25 02:02:01;;;;;;;16.48;9.60;;;;;;;27.42;53.35;99440.22;5093984;28;20019;-75
2021/06/25 02:04:26;;;;;;;16.73;9.13;;;;;;;27.44;53.13;99438.03;5093582;28;20038;-75
2021/06/25 02:06:52;;;;;;;13.40;9.02;;;;;;;27.68;53.12;99476.00;5093610;28;20027;-76
2021/06/25 02:09:17;;;;;;;14.60;8.95;;;;;;;27.42;53.03;99436.72;5092682;28;20020;-76
2021/06/25 02:11:43;;;;;;;16.45;8.90;;;;;;;27.56;53.17;99453.09;5093767;28;20096;-76
2021/06/25 02:14:09;;;;;;;14.85;8.45;;;;;;;27.27;53.20;99424.16;5093591;28;20107;-76
2021/06/25 02:16:35;;;;;;;17.33;10.00;;;;;;;27.32;53.25;99426.81;5093503;28;20051;-75
2021/06/25 02:19:00;;;;;;;17.85;8.63;;;;;;;27.62;53.15;99484.50;5093323;28;20069;-75
2021/06/25 02:21:26;;;;;;;16.88;9.55;;;;;;;27.09;53.46;99404.06;5093341;28;20032;-76
2021/06/25 02:23:52;;;;;;;14.02;9.45;;;;;;;27.41;53.66;99464.91;5093598;28;20024;-74
2021/06/25 02:26:17;;;;;;;16.27;9.35;;;;;;;27.34;53.75;99465.28;5093459;28;20027;-75
2021/06/25 02:28:43;;;;;;;18.38;9.43;;;;;;;27.17;53.77;99448.69;5093520;28;20024;-75
2021/06/25 02:31:08;;;;;;;17.98;9.00;;;;;;;27.03;53.78;99435.03;5093370;28;20030;-75
2021/06/25 02:33:33;;;;;;;13.43;8.13;;;;;;;27.32;54.07;99489.16;5093416;28;20016;-75
2021/06/25 02:35:59;;;;;;;17.88;8.85;;;;;;;26.98;53.93;99445.91;5091935;28;20016;-75
2021/06/25 02:38:24;;;;;;;16.25;9.13;;;;;;;26.82;54.10;99436.31;5093366;28;20020;-75
2021/06/25 02:40:50;;;;;;;17.05;9.05;;;;;;;26.63;54.24;99395.59;5093143;28;20421;-75
2021/06/25 02:43:15;;;;;;;14.75;9.25;;;;;;;27.18;54.12;99490.97;5093303;28;20059;-75
2021/06/25 02:45:40;;;;;;;14.98;8.75;;;;;;;26.74;54.08;99416.06;5093188;28;20031;-75
2021/06/25 02:48:06;;;;;;;14.25;9.48;;;;;;;27.12;54.12;99481.28;5093269;28;20031;-76
2021/06/25 02:50:32;;;;;;;15.77;9.75;;;;;;;26.75;54.21;99428.50;5093430;28;20031;-76
2021/06/25 02:52:57;;;;;;;14.77;8.82;;;;;;;27.00;54.33;99475.44;5092660;28;20024;-76
2021/06/25 02:55:23;;;;;;;13.05;8.73;;;;;;;26.59;54.44;99419.72;5093000;28;20019;-74
2021/06/25 02:57:48;;;;;;;16.10;9.23;;;;;;;26.53;54.50;99410.03;5092764;28;20111;-75
2021/06/25 03:00:16;;;;;;;16.38;9.25;;;;;;;26.88;54.46;99470.38;5092986;28;20027;-77
2021/06/25 03:02:42;;;;;;;13.07;9.38;;;;;;;26.75;54.63;99446.66;5092839;28;20470;-77
2021/06/25 03:05:10;;;;;;;15.07;9.10;;;;;;;26.66;54.49;99438.34;5092350;28;20054;-76
2021/06/25 03:07:35;;;;;;;15.13;9.30;;;;;;;26.50;54.59;99397.06;5092623;28;20016;-76
2021/06/25 03:10:01;;;;;;;16.35;9.70;;;;;;;26.39;54.73;99387.44;5092662;28;20034;-76
2021/06/25 03:12:26;;;;;;;13.13;9.70;;;;;;;26.39;54.49;99392.84;5092710;28;20024;-76
2021/06/25 03:14:52;;;;;;;15.15;10.05;;;;;;;26.69;54.59;99434.25;5091400;28;20416;-76
2021/06/25 03:17:18;;;;;;;16.77;9.13;;;;;;;26.48;54.84;99412.00;5092503;28;20052;-76
2021/06/25 03:19:43;;;;;;;16.02;9.35;;;;;;;26.36;54.74;99384.50;5092470;28;20106;-76
2021/06/25 03:22:08;;;;;;;14.57;9.30;;;;;;;26.55;54.96;99420.59;5091009;28;20028;-76
2021/06/25 03:24:34;;;;;;;14.32;9.55;;;;;;;26.51;54.82;99400.59;5092560;28;20047;-77
2021/06/25 03:27:00;;;;;;;13.77;9.73;;;;;;;26.68;55.01;99432.66;5092314;28;20162;-75
2021/06/25 03:29:26;;;;;;;14.15;9.45;;;;;;;26.43;54.90;99399.31;5092320;28;20480;-75
2021/06/25 03:31:51;;;;;;;16.00;9.85;;;;;;;26.34;55.00;99379.38;5092273;28;20031;-76
2021/06/25 03:34:17;;;;;;;13.38;8.82;;;;;;;26.17;54.85;99360.00;5092137;28;20153;-76
2021/06/25 03:36:42;;;;;;;16.33;8.63;;;;;;;26.45;54.81;99397.13;5091936;28;20101;-77
2021/06/25 03:39:07;;;;;;;17.45;9.20;;;;;;;26.35;54.84;99369.34;5090752;28;20024;-77
2021/06/25 03:41:33;;;;;;;15.90;9.52;;;;;;;26.65;54.76;99428.59;5090492;28;20066;-76
2021/06/25 03:43:58;;;;;;;12.13;9.00;;;;;;;26.14;54.87;99355.97;5091874;28;20086;-76
2021/06/25 03:46:24;;;;;;;17.75;9.40;;;;;;;26.55;54.82;99401.63;5091837;28;20028;-76
2021/06/25 03:48:49;;;;;;;15.82;9.75;;;;;;;26.35;54.83;99378.28;5091874;28;20028;-76
2021/06/25 03:51:16;;;;;;;18.95;9.73;;;;;;;26.34;55.25;99387.50;5090689;28;20023;-75
2021/06/25 03:53:42;;;;;;;14.68;9.00;;;;;;;26.15;54.87;99359.50;5091905;28;20019;-76
2021/06/25 03:56:10;;;;;;;16.40;9.02;;;;;;;26.24;54.88;99363.19;5090725;28;20502;-75
2021/06/25 03:58:41;;;;;;;20.55;10.05;;;;;;;26.66;54.81;99430.22;5091988;28;20554;-76
2021/06/25 04:01:07;;;;;;;18.00;9.25;;;;;;;26.24;54.77;99361.28;5091716;28;20407;-76
2021/06/25 04:03:32;;;;;;;11.80;9.27;;;;;;;26.25;54.94;99371.03;5090804;28;20111;-76
2021/06/25 04:05:58;;;;;;;17.20;10.30;;;;;;;26.59;54.97;99414.31;5091576;28;20043;-76
2021/06/25 04:08:26;;;;;;;17.20;10.00;;;;;;;26.25;55.09;99376.44;5091740;28;20031;-76
2021/06/25 04:10:51;;;;;;;18.77;11.07;;;;;;;26.37;54.86;99395.03;5091489;28;20020;-75
2021/06/25 04:13:17;;;;;;;15.70;9.85;;;;;;;26.54;54.75;99400.81;5091294;28;20184;-75
2021/06/25 04:15:42;;;;;;;19.20;11.00;;;;;;;26.46;54.82;99377.09;5091073;28;20103;-75
2021/06/25 04:18:08;;;;;;;14.73;9.95;;;;;;;26.34;54.75;99348.78;5091408;28;20103;-75
2021/06/25 04:20:33;;;;;;;17.90;9.70;;;;;;;26.85;54.82;99430.31;5091360;28;20024;-74
2021/06/25 04:22:59;;;;;;;20.75;10.82;;;;;;;26.63;54.71;99382.06;5090121;28;20046;-76
2021/06/25 04:25:24;;;;;;;19.88;10.73;;;;;;;26.63;54.77;99387.47;5091312;28;20020;-74
2021/06/25 04:27:51;;;;;;;18.27;11.65;;;;;;;26.73;54.89;99397.38;5091387;28;20051;-77
2021/06/25 04:30:16;;;;;;;18.77;11.50;;;;;;;26.55;54.77;99363.72;5089663;28;20385;-76
2021/06/25 04:32:42;;;;;;;22.30;12.32;;;;;;;26.97;54.67;99421.78;5089850;28;20019;-76
2021/06/25 04:35:08;;;;;;;20.38;11.75;;;;;;;27.09;54.56;99438.47;5091364;28;20016;-76
2021/06/25 04:37:34;;;;;;;21.50;11.98;;;;;;;26.98;55.03;99416.13;5091119;28;20020;-76
2021/06/25 04:40:00;;;;;;;21.20;11.27;;;;;;;26.71;55.21;99380.59;5091381;28;20019;-76
2021/06/25 04:42:25;;;;;;;16.55;11.95;;;;;;;27.00;55.07;99416.63;5091198;28;20055;-75
2021/06/25 04:44:50;;;;;;;17.73;11.38;;;;;;;26.84;54.92;99388.06;5091106;28;20088;-76
2021/06/25 04:47:16;;;;;;;19.95;11.70;;;;;;;27.09;55.10;99427.66;5091336;28;20020;-77
2021/06/25 04:49:41;;;;;;;17.88;11.27;;;;;;;27.23;54.98;99428.56;5091188;28;20024;-76
2021/06/25 04:52:07;;;;;;;21.60;11.90;;;;;;;27.36;54.93;99438.69;5091097;28;20454;-75
2021/06/25 04:54:33;;;;;;;22.92;12.55;;;;;;;27.15;54.86;99402.91;5090951;28;20482;-76
2021/06/25 04:56:59;;;;;;;20.95;12.20;;;;;;;27.29;55.12;99450.97;5089525;28;20051;-77
2021/06/25 04:59:26;;;;;;;20.25;11.95;;;;;;;27.28;55.53;99439.34;5090992;28;20020;-76
2021/06/25 05:01:52;;;;;;;20.48;11.82;;;;;;;27.05;55.68;99407.63;5091212;28;20028;-76
2021/06/25 05:04:17;;;;;;;19.05;10.85;;;;;;;27.22;55.45;99421.50;5089551;28;20028;-77
2021/06/25 05:06:43;;;;;;;18.58;11.40;;;;;;;27.18;55.27;99401.50;5089616;28;20081;-77
2021/06/25 05:09:08;;;;;;;18.38;12.07;;;;;;;27.08;55.54;99378.06;5090960;28;20016;-74
2021/06/25 05:11:33;;;;;;;22.73;11.90;;;;;;;27.13;55.76;99407.00;5089853;28;20062;-76
2021/06/25 05:13:59;;;;;;;17.92;12.00;;;;;;;27.27;55.50;99396.25;5091178;28;20074;-76
2021/06/25 05:16:24;;;;;;;14.43;11.05;;;;;;;27.25;55.38;99387.59;5094752;28;20115;-75
2021/06/25 05:18:50;;;;;;;20.45;12.32;;;;;;;27.64;55.33;99434.28;5094848;28;20028;-76
2021/06/25 05:21:15;;;;;;;18.20;10.77;;;;;;;27.73;54.88;99431.72;5094661;28;20020;-76
2021/06/25 05:23:40;;;;;;;17.60;10.07;;;;;;;27.79;54.56;99425.94;5094673;28;20027;-76
2021/06/25 05:26:06;;;;;;;24.80;10.32;;;;;;;27.60;54.10;99406.13;5094789;28;20103;-77
2021/06/25 05:28:31;;;;;;;16.90;8.98;;;;;;;28.04;53.30;99426.63;5094454;28;20028;-76
2021/06/25 05:30:57;;;;;;;20.02;9.68;;;;;;;28.09;53.25;99440.13;5094187;28;20020;-76
2021/06/25 05:33:23;;;;;;;18.73;9.48;;;;;;;28.09;53.17;99429.28;5094377;28;20089;-76
2021/06/25 05:35:48;;;;;;;17.67;9.35;;;;;;;28.05;53.01;99410.06;5094474;28;20503;-73
2021/06/25 05:38:14;;;;;;;16.23;9.18;;;;;;;28.28;52.72;99418.44;5094151;28;20062;-76
2021/06/25 05:40:41;;;;;;;15.48;8.90;;;;;;;27.96;51.99;99362.19;5094004;28;20516;-76
2021/06/25 05:43:08;;;;;;;20.50;9.02;;;;;;;28.09;51.47;99374.97;5094174;28;20393;-77
2021/06/25 05:45:35;;;;;;;22.55;8.77;;;;;;;28.17;51.40;99368.88;5094329;28;20028;-76
2021/06/25 05:48:01;;;;;;;21.98;9.40;;;;;;;28.33;51.09;99394.72;5078660;28;20031;-76
2021/06/25 05:50:27;;;;;;;17.42;8.48;;;;;;;28.47;51.45;99409.13;5074503;28;20027;-76
2021/06/25 05:52:52;;;;;;;19.48;9.07;;;;;;;28.22;51.50;99360.63;5073250;28;20017;-76
2021/06/25 05:55:17;;;;;;;18.42;9.20;;;;;;;28.64;51.17;99405.81;5082137;28;20031;-76
2021/06/25 05:57:45;;;;;;;18.20;9.27;;;;;;;28.68;51.44;99404.13;5083319;28;20477;-76
2021/06/25 06:00:11;;;;;;;14.27;8.68;;;;;;;28.75;50.93;99399.09;5081353;28;20019;-76
2021/06/25 06:02:37;;;;;;;17.92;8.95;;;;;;;28.78;50.69;99387.63;5072141;28;20024;-77
2021/06/25 06:05:02;;;;;;;17.20;8.88;;;;;;;28.52;50.49;99355.81;5089312;28;20412;-77
2021/06/25 06:07:28;;;;;;;19.98;9.40;;;;;;;28.88;50.19;99396.69;5089483;28;20023;-76
2021/06/25 06:09:54;;;;;;;14.82;8.85;;;;;;;28.94;49.83;99396.28;5111032;28;20080;-75
2021/06/25 06:12:20;;;;;;;24.70;8.63;;;;;;;28.79;49.43;99363.97;5092768;28;20499;-75
2021/06/25 06:14:46;;;;;;;18.27;9.30;;;;;;;29.04;49.04;99396.13;5082688;28;20026;-75
2021/06/25 06:17:11;;;;;;;21.45;8.38;;;;;;;28.80;48.77;99366.38;5081033;28;20091;-75
2021/06/25 06:19:42;;;;;;;19.42;8.45;;;;;;;29.16;48.27;99401.03;5085454;28;20056;-76
2021/06/25 06:33:12;;;;;;;19.33;8.85;;;;;;;29.10;47.77;99326.13;5093180;28;20093;-75
2021/06/25 06:35:39;;;;;;;21.10;8.70;;;;;;;29.58;47.58;99372.66;5087125;28;20023;-75
2021/06/25 06:38:06;;;;;;;18.33;7.93;;;;;;;29.65;47.70;99369.53;5091794;28;20028;-75
2021/06/25 06:40:32;;;;;;;22.00;17.05;;;;;;;29.58;47.06;99345.47;5092498;28;20593;-75
2021/06/25 06:42:58;;;;;;;18.63;10.32;;;;;;;29.79;47.60;99364.03;5091133;28;20032;-76
2021/06/25 06:45:24;;;;;;;22.38;14.10;;;;;;;29.62;48.00;99326.59;5087104;28;20028;-76
2021/06/25 06:47:49;;;;;;;18.63;12.55;;;;;;;29.62;47.73;99316.53;5093095;28;20088;-75
2021/06/25 06:50:15;;;;;;;14.15;8.93;;;;;;;29.99;47.65;99361.63;5079292;28;20025;-76
2021/06/25 06:52:46;;;;;;;16.23;9.25;;;;;;;29.93;47.54;99334.84;5089358;28;20047;-76
2021/06/25 06:55:12;;;;;;;;;;;;;;;29.91;47.98;99354.22;5073319;28;20019;-77
2021/06/25 06:57:38;;;;;;;16.58;9.07;;;;;;;29.76;47.05;99319.22;5077544;28;19919;-77
2021/06/25 07:00:06;;;;;;;17.23;9.20;;;;;;;30.02;46.83;99335.72;5081205;28;20027;-76
2021/06/25 07:02:33;;;;;;;19.23;10.15;;;;;;;30.18;46.93;99353.28;5075131;28;20400;-75
2021/06/25 07:04:59;;;;;;;19.83;9.98;;;;;;;30.23;46.90;99355.06;5083129;28;20024;-76
2021/06/25 07:07:24;;;;;;;19.88;11.32;;;;;;;30.28;47.12;99363.09;5079493;28;20039;-74
2021/06/25 07:09:50;;;;;;;21.20;10.25;;;;;;;30.34;46.81;99356.41;5092041;28;20016;-74
2021/06/25 07:12:15;;;;;;;16.10;9.93;;;;;;;30.06;46.80;99306.75;5092059;28;20020;-74
2021/06/25 07:14:41;;;;;;;20.20;13.73;;;;;;;30.31;46.59;99346.94;5099641;28;20080;-75
2021/06/25 07:17:06;;;;;;;16.50;9.40;;;;;;;30.25;46.74;99314.69;5092378;28;20416;-74
2021/06/25 07:19:31;;;;;;;20.52;9.57;;;;;;;30.21;46.61;99292.75;5096396;28;20024;-76
2021/06/25 07:21:57;;;;;;;16.65;9.05;;;;;;;30.62;46.54;99354.34;5098368;28;20024;-75
2021/06/25 07:24:22;;;;;;;15.05;8.90;;;;;;;30.57;46.02;99338.91;5111087;28;20102;-75
2021/06/25 07:26:48;;;;;;;17.73;9.13;;;;;;;30.57;46.32;99325.28;5090372;28;20520;-76
2021/06/25 07:29:14;;;;;;;18.92;8.65;;;;;;;30.43;45.87;99297.31;5092739;28;20027;-74
2021/06/25 07:31:39;;;;;;;27.42;18.35;;;;;;;30.90;45.51;99360.34;5095020;28;20081;-75
2021/06/25 07:34:05;;;;;;;19.38;8.63;;;;;;;30.39;45.41;99273.75;5098331;28;20020;-76
2021/06/25 07:36:30;;;;;;;13.85;8.75;;;;;;;30.47;45.13;99272.97;5096504;28;20154;-76
2021/06/25 07:38:56;;;;;;;19.98;8.20;;;;;;;30.74;44.91;99300.03;5079860;28;20393;-76
2021/06/25 07:41:21;;;;;;;16.45;8.57;;;;;;;30.65;44.38;99288.31;5087708;28;20102;-76
2021/06/25 07:43:47;;;;;;;17.55;8.32;;;;;;;31.20;44.05;99364.13;5071845;28;20031;-75
2021/06/25 07:46:12;;;;;;;16.35;8.85;;;;;;;31.01;44.31;99319.97;5102747;28;20480;-76
2021/06/25 07:48:38;;;;;;;13.57;8.93;;;;;;;31.08;44.03;99326.53;5080331;28;20100;-76
2021/06/25 07:51:03;;;;;;;18.10;7.88;;;;;;;31.38;43.84;99357.59;5082723;28;20024;-75
2021/06/25 07:53:29;;;;;;;17.50;8.07;;;;;;;31.25;44.05;99323.09;5082261;28;20106;-76
2021/06/25 07:55:54;;;;;;;15.60;7.78;;;;;;;31.53;43.89;99359.84;5071378;28;20032;-76
2021/06/25 07:58:20;;;;;;;17.60;7.90;;;;;;;31.22;44.03;99301.91;5078286;28;20083;-76
2021/06/25 08:00:45;;;;;;;17.65;7.97;;;;;;;31.68;43.83;99352.31;5088535;28;20495;-76
2021/06/25 08:03:11;;;;;;;16.90;8.27;;;;;;;31.34;43.74;99293.88;5071516;28;20131;-77
2021/06/25 08:05:37;;;;;;;21.92;8.98;;;;;;;31.57;43.29;99317.16;5070907;28;20028;-77
2021/06/25 08:08:03;;;;;;;20.27;8.27;;;;;;;31.50;42.85;99305.91;5072151;28;20020;-75
2021/06/25 08:10:29;;;;;;;17.75;8.00;;;;;;;31.88;42.72;99349.75;5070913;28;20553;-76
2021/06/25 08:12:54;;;;;;;17.70;8.60;;;;;;;31.78;42.56;99327.44;5072411;28;20099;-77
2021/06/25 08:15:19;;;;;;;16.88;7.72;;;;;;;31.85;42.41;99328.53;5070412;28;20024;-78
2021/06/25 08:17:45;;;;;;;22.73;9.75;;;;;;;32.01;41.86;99336.25;5082641;28;20089;-77
2021/06/25 08:20:11;;;;;;;18.40;8.55;;;;;;;31.97;41.72;99330.63;5090897;28;20032;-77
2021/06/25 08:22:37;;;;;;;15.73;8.38;;;;;;;32.00;41.91;99329.97;5089298;28;20031;-77
2021/06/25 08:25:03;;;;;;;17.40;9.00;;;;;;;32.26;41.41;99353.72;5090860;28;20016;-76
2021/06/25 08:27:29;;;;;;;21.00;9.48;;;;;;;32.03;41.02;99312.94;5089402;28;20024;-76
2021/06/25 08:29:55;;;;;;;17.70;9.25;;;;;;;32.06;41.23;99298.63;5090624;28;20048;-75
2021/06/25 08:32:22;;;;;;;16.20;8.95;;;;;;;32.55;41.17;99368.25;5090668;28;20020;-77
2021/06/25 08:34:47;;;;;;;22.55;9.63;;;;;;;32.55;41.11;99368.25;5077372;28;20021;-77
2021/06/25 08:37:13;;;;;;;20.90;9.38;;;;;;;32.51;40.97;99361.03;5069299;28;20036;-76
2021/06/25 08:39:38;;;;;;;18.88;9.40;;;;;;;32.22;40.57;99310.63;5088160;28;20463;-78
2021/06/25 08:42:06;;;;;;;15.15;10.10;;;;;;;32.42;41.05;99330.19;5085972;28;20047;-80
2021/06/25 08:44:37;;;;;;;20.23;10.10;;;;;;;32.78;40.40;99368.03;5070364;28;20020;-75
2021/06/25 08:47:02;;;;;;;;;;;;;;;32.64;40.80;99373.66;5070671;28;20024;-76
2021/06/25 08:49:31;;;;;;;22.98;10.10;;;;;;;32.41;40.62;99314.94;5071204;28;19908;-75
2021/06/25 08:51:56;;;;;;;20.92;8.73;;;;;;;32.57;40.31;99326.13;5074779;28;20020;-76
2021/06/25 08:54:22;;;;;;;16.85;9.45;;;;;;;32.89;40.41;99361.06;5090141;28;20023;-75
2021/06/25 08:56:48;;;;;;;20.48;9.65;;;;;;;32.76;40.29;99330.06;5074454;28;20497;-74
2021/06/25 08:59:19;;;;;;;21.08;10.40;;;;;;;33.04;40.29;99346.00;5088178;28;20029;-77
2021/06/25 09:01:48;;;;;;;;;;;;;;;33.06;40.41;99355.47;5104731;28;20059;-78
2021/06/25 09:04:32;;;;;;;16.30;9.75;;;;;;;33.28;40.15;99346.16;5091612;28;20366;-77
2021/06/25 09:06:57;;;;;;;18.90;9.63;;;;;;;33.41;39.75;99350.59;5105482;28;20024;-78
2021/06/25 09:09:35;;;;;;;22.85;9.90;;;;;;;33.08;39.48;99273.88;5109584;27;20103;-76
2021/06/25 09:12:21;;;;;;;22.42;9.32;;;;;;;33.62;39.42;99344.34;5094540;28;20080;-77
2021/06/25 09:15:00;;;;;;;15.20;9.30;;;;;;;33.77;39.29;99346.44;5092579;28;20027;-75
2021/06/25 09:17:26;;;;;;;21.27;13.65;;;;;;;33.45;39.28;99272.19;5114456;28;20046;-76
2021/06/25 09:19:52;;;;;;;24.95;13.57;;;;;;;34.02;39.67;99345.41;5108429;28;20020;-75
2021/06/25 09:22:18;;;;;;;31.75;17.63;;;;;;;34.15;39.18;99339.97;5093632;28;20268;-76
2021/06/25 09:24:44;;;;;;;22.52;12.80;;;;;;;34.14;38.73;99317.22;5106843;28;20031;-76
2021/06/25 09:27:10;;;;;;;22.77;16.90;;;;;;;34.33;38.59;99342.22;5083162;28;20025;-76
2021/06/25 09:29:40;;;;;;;24.40;14.57;;;;;;;34.50;38.42;99335.72;5080002;28;20523;-77
2021/06/25 09:32:10;;;;;;;24.33;11.10;;;;;;;34.70;38.22;99344.97;5097570;28;20020;-77
2021/06/25 09:34:41;;;;;;;16.92;10.50;;;;;;;34.84;38.04;99334.47;5091508;28;20051;-78
2021/06/25 09:37:10;;;;;;;18.95;9.55;;;;;;;34.93;37.80;99337.94;5087432;28;20027;-76
2021/06/25 09:39:40;;;;;;;19.65;9.57;;;;;;;35.00;37.26;99332.66;5076279;28;20089;-77
2021/06/25 09:42:15;;;;;;;20.80;13.57;;;;;;;35.09;37.21;99318.81;5073817;28;20087;-77
2021/06/25 09:44:55;;;;;;;24.60;15.93;;;;;;;35.15;37.30;99309.19;5073139;28;20064;-77
2021/06/25 09:47:53;;;;;;;20.95;13.43;;;;;;;35.42;37.66;99317.81;5077958;28;20431;-77
2021/06/25 09:50:20;;;;;;;16.60;9.38;;;;;;;35.69;36.69;99325.28;5079222;28;20075;-77
2021/06/25 09:52:54;;;;;;;21.05;11.13;;;;;;;35.77;36.66;99324.34;5075064;28;20089;-76
2021/06/25 09:55:50;;;;;;;16.27;10.77;;;;;;;35.99;36.53;99325.72;5075820;28;20110;-76
2021/06/25 10:01:26;;;;;;;18.98;9.65;;;;;;;35.89;35.89;99272.09;5085257;28;20501;-75
2021/06/25 10:03:53;;;;;;;21.73;9.75;;;;;;;36.29;36.21;99317.88;5090978;28;20024;-77
2021/06/25 10:06:21;;;;;;;19.77;10.10;;;;;;;36.23;35.71;99276.09;5081117;28;20036;-78
2021/06/25 10:08:48;;;;;;;19.67;9.65;;;;;;;36.63;34.88;99321.09;5073548;28;20115;-76
2021/06/25 10:11:15;;;;;;;22.80;11.52;;;;;;;36.74;34.76;99311.13;5069659;28;20532;-77
2021/06/25 10:13:42;;;;;;;16.27;9.75;;;;;;;36.89;34.52;99313.88;5076263;28;20016;-77
2021/06/25 10:16:09;;;;;;;15.70;9.20;;;;;;;36.97;34.28;99306.56;5090421;28;20020;-77
2021/06/25 10:18:45;;;;;;;17.92;9.07;;;;;;;37.14;33.98;99308.91;5080500;28;20023;-76
2021/06/25 10:21:13;;;;;;;20.35;9.60;;;;;;;37.19;33.09;99291.34;5088527;28;20036;-76
2021/06/25 10:23:45;;;;;;;14.07;8.60;;;;;;;37.06;32.92;99259.56;5070972;28;20032;-77
2021/06/25 10:26:13;;;;;;;20.20;8.80;;;;;;;37.52;32.69;99305.41;5079849;28;20413;-76
2021/06/25 10:28:41;;;;;;;20.38;9.32;;;;;;;37.64;32.60;99307.22;5089864;28;20494;-76
2021/06/25 10:31:08;;;;;;;18.17;8.10;;;;;;;37.38;32.25;99235.50;5086837;28;20035;-77
2021/06/25 10:33:35;;;;;;;20.83;8.70;;;;;;;37.85;31.24;99302.13;5092920;28;20106;-77
2021/06/25 10:36:04;;;;;;;22.42;8.68;;;;;;;37.62;31.10;99242.63;5085301;28;20421;-76
2021/06/25 10:38:31;;;;;;;18.33;8.63;;;;;;;37.43;30.66;99202.13;5080497;28;20102;-77
2021/06/25 10:41:02;;;;;;;19.42;8.80;;;;;;;38.02;30.29;99270.56;5072196;28;20445;-77
2021/06/25 10:43:50;;;;;;;19.85;9.18;;;;;;;38.02;29.90;99258.75;5085733;28;20085;-77
2021/06/25 10:46:29;;;;;;;17.70;9.00;;;;;;;38.35;30.19;99288.47;5083583;28;20028;-77
2021/06/25 10:49:09;;;;;;;16.88;8.88;;;;;;;38.27;29.95;99290.31;5084541;28;20052;-77
2021/06/25 10:51:40;;;;;;;20.20;8.85;;;;;;;38.40;30.17;99286.19;5071727;28;20085;-77
2021/06/25 10:54:21;;;;;;;21.25;8.07;;;;;;;38.58;29.31;99282.91;5084853;28;20569;-76
2021/06/25 10:56:49;;;;;;;21.17;8.82;;;;;;;38.66;29.36;99279.94;5088003;28;20035;-76
2021/06/25 10:59:25;;;;;;;19.02;8.38;;;;;;;38.33;29.24;99219.09;5071404;28;20103;-76
2021/06/25 11:01:52;;;;;;;14.77;8.85;;;;;;;38.96;29.11;99279.94;5085521;28;20028;-76
2021/06/25 11:04:36;;;;;;;17.98;8.10;;;;;;;39.20;28.81;99270.41;5071846;28;20032;-76
2021/06/25 11:07:06;;;;;;;18.48;8.25;;;;;;;39.32;28.94;99274.91;5071075;28;20432;-77
2021/06/25 11:09:53;;;;;;;16.88;6.82;;;;;;;39.51;28.66;99280.31;5085941;28;20047;-77
2021/06/25 11:12:30;;;;;;;16.70;7.55;;;;;;;39.73;28.67;99281.31;5094509;28;20060;-77
2021/06/25 11:15:17;;;;;;;20.75;8.52;;;;;;;39.84;27.39;99279.44;5079556;28;20028;-76
2021/06/25 11:17:50;;;;;;;13.73;7.55;;;;;;;39.96;27.47;99279.19;5074228;28;20067;-77
2021/06/25 11:20:33;;;;;;;14.98;8.02;;;;;;;40.00;27.52;99263.44;5089956;28;20588;-77
2021/06/25 11:23:02;;;;;;;19.60;7.88;;;;;;;40.05;27.23;99292.72;5076357;28;20034;-77
2021/06/25 11:25:39;;;;;;;19.80;8.40;;;;;;;40.14;27.18;99281.34;5071101;28;20580;-78
2021/06/25 11:28:13;;;;;;;18.20;10.02;;;;;;;40.29;26.56;99270.03;5073435;28;20032;-81
2021/06/25 11:30:50;;;;;;;17.65;8.10;;;;;;;40.47;25.40;99272.16;5071234;28;20020;-80
2021/06/25 11:33:26;;;;;;;13.70;6.80;;;;;;;40.52;25.76;99266.25;5070327;28;20047;-81
2021/06/25 11:35:52;;;;;;;18.58;7.13;;;;;;;40.61;25.70;99273.03;5075959;28;20051;-80
2021/06/25 11:38:18;;;;;;;13.18;7.10;;;;;;;40.57;25.61;99269.44;5070300;28;20029;-81
2021/06/25 11:40:50;;;;;;;21.00;8.20;;;;;;;40.40;24.95;99248.00;5072259;28;20028;-80